Time;durP1;ratioP1;P1;durP2;ratioP2;P2;SDS_P1;SDS_P2;PMS_P1;PMS_P2;Temp;Humidity;BMP_temperature;BMP_pressure;BME280_temperature;BME280_humidity;BME280_pressure;Samples;Min_cycle;Max_cycle;Signal;HPM_P1;HPM_P2
2022/11/28 00:01:52;;;;;;;;;4.67;4.67;;;;;10.23;100.00;100416.69;6230479;22;47174;-87
2022/11/28 00:04:19;;;;;;;;;8.67;7.67;;;;;10.31;100.00;100423.88;6230445;22;45562;-86
2022/11/28 00:06:47;;;;;;;;;8.00;7.33;;;;;10.40;100.00;100431.03;6258598;22;45445;-87
2022/11/28 00:09:17;;;;;;;;;6.33;6.33;;;;;10.18;100.00;100406.91;6234125;22;45237;-86
2022/11/28 00:11:44;;;;;;;;;10.00;8.00;;;;;10.10;100.00;100387.34;6231324;22;47313;-86
2022/11/28 00:14:10;;;;;;;;;7.33;7.33;;;;;10.43;100.00;100440.84;6230845;22;45347;-87
2022/11/28 00:16:36;;;;;;;;;8.00;7.67;;;;;10.46;100.00;100433.75;6231327;22;45272;-87
2022/11/28 00:19:03;;;;;;;;;8.00;7.33;;;;;10.49;100.00;100423.16;6232967;22;45659;-87
2022/11/28 00:21:30;;;;;;;;;8.33;8.33;;;;;10.50;100.00;100416.06;6234508;22;47993;-87
2022/11/28 00:23:56;;;;;;;;;8.67;7.33;;;;;10.39;100.00;100389.41;6233595;22;44678;-86
2022/11/28 00:26:25;;;;;;;;;8.00;7.00;;;;;10.38;100.00;100392.94;6233669;22;44773;-87
2022/11/28 00:28:54;;;;;;;;;10.67;9.00;;;;;10.21;100.00;100361.72;6263249;22;45371;-88
2022/11/28 00:38:12;;;;;;;;;5.67;5.67;;;;;10.44;100.00;100405.38;6252736;22;45355;-87
2022/11/28 00:40:37;;;;;;;;;9.00;9.00;;;;;10.38;100.00;100387.59;6202232;22;45784;-86
2022/11/28 00:43:03;;;;;;;;;8.00;7.00;;;;;10.44;100.00;100392.97;6228816;22;45323;-86
2022/11/28 00:45:29;;;;;;;;;9.33;8.00;;;;;10.45;100.00;100393.91;6228049;22;44773;-87
2022/11/28 00:47:54;;;;;;;;;8.00;8.00;;;;;10.39;100.00;100379.66;6204101;22;45297;-87
2022/11/28 00:50:23;;;;;;;;;9.67;9.67;;;;;10.41;100.00;100385.00;6201065;22;45708;-86
2022/11/28 00:52:49;;;;;;;;;8.33;8.00;;;;;10.27;100.00;100365.34;6199820;22;45216;-87
2022/11/28 00:55:14;;;;;;;;;9.67;8.00;;;;;10.43;100.00;100391.22;6198663;22;45396;-87
2022/11/28 00:57:43;;;;;;;;;8.33;6.33;;;;;10.43;100.00;100393.00;6199773;22;45301;-86
2022/11/28 01:00:11;;;;;;;;;8.00;8.00;;;;;10.45;100.00;100396.56;6200916;22;45263;-86
2022/11/28 01:02:36;;;;;;;;;11.33;9.00;;;;;10.45;100.00;100386.81;6200771;22;47781;-87
2022/11/28 01:05:02;;;;;;;;;10.00;9.00;;;;;10.36;100.00;100369.00;6202426;22;45741;-86
2022/11/28 01:07:27;;;;;;;;;8.00;8.00;;;;;10.51;100.00;100389.50;6199410;22;45354;-86
2022/11/28 01:09:54;;;;;;;;;8.00;6.33;;;;;10.54;100.00;100391.28;6201510;22;45192;-87
2022/11/28 01:12:20;;;;;;;;;8.00;8.00;;;;;10.42;100.00;100368.16;6201394;22;47706;-87
2022/11/28 01:14:49;;;;;;;;;8.67;7.67;;;;;10.55;100.00;100391.31;6202664;22;45333;-87
2022/11/28 01:17:14;;;;;;;;;9.00;8.67;;;;;10.54;100.00;100388.63;6229866;22;45298;-86
2022/11/28 01:19:40;;;;;;;;;7.67;7.67;;;;;10.55;100.00;100393.97;6201781;22;45479;-86
2022/11/28 01:22:05;;;;;;;;;7.33;7.33;;;;;10.60;100.00;100397.59;6202448;22;48363;-86
2022/11/28 01:24:32;;;;;;;;;8.33;7.33;;;;;10.63;100.00;100395.81;6201575;22;45340;-86
2022/11/28 01:26:58;;;;;;;;;11.00;9.00;;;;;10.51;100.00;100370.91;6200650;22;45558;-87
2022/11/28 01:29:23;;;;;;;;;10.00;10.00;;;;;10.64;100.00;100398.47;6226009;22;45246;-87
2022/11/28 01:31:49;;;;;;;;;10.67;10.67;;;;;10.63;100.00;100394.03;6197686;22;46922;-87
2022/11/28 01:34:15;;;;;;;;;8.67;8.67;;;;;10.63;100.00;100404.69;6198269;22;45153;-87
2022/11/28 01:36:40;;;;;;;;;11.33;10.67;;;;;10.66;100.00;100398.50;6196762;22;45237;-87
2022/11/28 01:39:06;;;;;;;;;9.00;9.00;;;;;10.60;100.00;100399.31;6217101;22;45264;-87
2022/11/28 01:41:32;;;;;;;;;7.00;7.00;;;;;10.66;100.00;100403.81;6256487;22;45755;-87
2022/11/28 01:44:03;;;;;;;;;8.00;8.00;;;;;10.65;100.00;100400.28;6227958;22;45383;-87
2022/11/28 01:46:29;;;;;;;;;9.00;9.00;;;;;10.66;100.00;100410.00;6230313;22;44716;-87
2022/11/28 01:49:06;;;;;;;;;8.00;8.00;;;;;10.65;100.00;100404.72;6257213;22;45177;-86
2022/11/28 01:51:33;;;;;;;;;9.67;9.00;;;;;10.71;100.00;100408.28;6229121;22;47566;-87
2022/11/28 01:53:59;;;;;;;;;9.00;9.00;;;;;10.70;100.00;100410.94;6228567;22;44756;-86
2022/11/28 01:56:30;;;;;;;;;11.00;10.00;;;;;10.71;100.00;100410.97;6228558;22;45339;-86
2022/11/28 02:02:26;;;;;;;;;10.00;10.00;;;;;10.74;100.00;100418.06;6255727;22;45376;-86
2022/11/28 02:04:52;;;;;;;;;10.00;10.00;;;;;10.75;100.00;100419.84;6227976;22;45380;-86
2022/11/28 02:07:19;;;;;;;;;10.67;10.00;;;;;10.74;100.00;100428.69;6254414;22;45608;-87
2022/11/28 02:09:44;;;;;;;;;9.33;8.67;;;;;10.77;100.00;100431.41;6228639;22;45480;-87
2022/11/28 02:12:19;;;;;;;;;11.33;11.33;;;;;10.78;100.00;100428.72;6228382;22;45451;-86
2022/11/28 02:14:59;;;;;;;;;10.33;10.00;;;;;10.79;100.00;100430.53;6256726;22;44716;-86
2022/11/28 02:17:50;;;;;;;;;11.33;11.00;;;;;10.81;100.00;100422.56;6229400;22;45408;-87
2022/11/28 02:20:42;;;;;;;;;14.00;11.33;;;;;10.77;100.00;100412.78;6229287;22;45214;-87
2022/11/28 02:23:22;;;;;;;;;10.67;10.67;;;;;10.70;100.00;100405.63;6254502;22;45548;-87
2022/11/28 02:26:06;;;;;;;;;11.00;11.00;;;;;10.68;100.00;100399.41;6228286;22;45358;-87
2022/11/28 02:28:47;;;;;;;;;13.33;11.00;;;;;10.68;100.00;100399.41;6229941;22;45440;-87
2022/11/28 02:31:18;;;;;;;;;12.33;10.00;;;;;10.67;100.00;100395.84;6232530;22;44840;-86
2022/11/28 02:33:50;;;;;;;;;14.00;10.00;;;;;10.69;100.00;100406.50;6231094;22;46843;-87
2022/11/28 02:36:26;;;;;;;;;11.33;11.33;;;;;10.68;100.00;100402.06;6259056;22;45282;-88
2022/11/28 02:39:15;;;;;;;;;15.67;12.67;;;;;10.71;100.00;100407.41;6214038;22;45323;-87
2022/11/28 02:42:01;;;;;;;;;13.00;9.67;;;;;10.73;100.00;100401.22;6200517;22;45412;-87
2022/11/28 02:44:43;;;;;;;;;11.00;10.00;;;;;10.69;100.00;100398.53;6197453;22;46801;-86
2022/11/28 02:47:39;;;;;;;;;13.00;10.33;;;;;10.70;100.00;100395.84;6203310;22;45276;-86
2022/11/28 02:50:27;;;;;;;;;13.67;13.67;;;;;10.67;100.00;100394.97;6203485;22;45341;-87
2022/11/28 02:53:02;;;;;;;;;15.33;11.00;;;;;10.62;100.00;100386.94;6231241;22;45358;-86
2022/11/28 02:55:28;;;;;;;;;12.00;11.67;;;;;10.60;100.00;100386.94;6204069;22;45284;-87
2022/11/28 02:57:54;;;;;;;;;11.33;11.33;;;;;10.39;100.00;100350.41;6204111;22;45311;-87
2022/11/28 03:00:35;;;;;;;;;10.33;10.00;;;;;10.49;100.00;100367.34;6205447;22;45323;-87
2022/11/28 03:03:28;;;;;;;;;11.00;11.00;;;;;10.52;100.00;100363.81;6204067;22;45372;-87
2022/11/28 03:06:23;;;;;;;;;11.00;11.00;;;;;10.49;100.00;100361.13;6201978;22;47013;-87
2022/11/28 03:09:26;;;;;;;;;12.67;10.00;;;;;10.44;100.00;100358.41;6220697;22;45406;-87
2022/11/28 03:12:20;;;;;;;;;12.33;11.00;;;;;10.39;100.00;100378.78;6200431;22;45837;-86
2022/11/28 03:15:01;;;;;;;;;11.00;10.00;;;;;10.38;100.00;100372.56;6204061;22;45282;-87
2022/11/28 03:18:04;;;;;;;;;12.00;12.00;;;;;10.38;100.00;100376.97;6201846;22;46932;-87
2022/11/28 03:21:05;;;;;;;;;10.00;10.00;;;;;10.36;100.00;100378.72;6229233;22;45299;-86
2022/11/28 03:23:42;;;;;;;;;17.67;15.67;;;;;10.41;100.00;100379.69;6142852;23;45483;-87
2022/11/28 03:26:33;;;;;;;;;11.00;11.00;;;;;10.43;100.00;100380.59;6142760;23;45334;-87
2022/11/28 03:29:14;;;;;;;;;14.67;12.67;;;;;10.43;100.00;100380.59;6142693;23;46973;-87
2022/11/28 03:31:52;;;;;;;;;14.67;14.67;;;;;10.45;100.00;100391.25;6140715;23;45404;-87
2022/11/28 03:34:22;;;;;;;;;9.33;9.33;;;;;10.40;100.00;100391.16;6136409;23;45284;-87
2022/11/28 03:36:55;;;;;;;;;15.00;15.00;;;;;10.46;100.00;100396.53;6136213;23;45532;-87
2022/11/28 03:39:26;;;;;;;;;11.33;10.00;;;;;10.48;100.00;100400.09;6156374;23;46865;-88
2022/11/28 03:42:04;;;;;;;;;13.67;11.00;;;;;10.47;100.00;100392.13;6167557;23;45360;-87
2022/11/28 03:44:37;;;;;;;;;10.00;9.00;;;;;10.51;100.00;100394.81;6165757;23;45324;-87
2022/11/28 03:47:05;;;;;;;;;14.67;14.67;;;;;10.53;100.00;100382.44;6165226;23;45303;-87
2022/11/28 03:49:37;;;;;;;;;15.00;13.00;;;;;10.51;100.00;100367.34;6165107;23;45544;-87
2022/11/28 03:52:13;;;;;;;;;12.67;12.33;;;;;10.58;100.00;100369.16;6190096;23;45251;-87
2022/11/28 03:54:49;;;;;;;;;15.00;13.00;;;;;10.60;100.00;100362.09;6167454;23;44725;-87
2022/11/28 03:57:34;;;;;;;;;19.33;15.00;;;;;10.64;100.00;100368.34;6218799;22;45190;-87
2022/11/28 04:00:05;;;;;;;;;14.67;14.67;;;;;10.55;100.00;100353.22;6229279;22;47603;-87
2022/11/28 04:02:51;;;;;;;;;14.33;13.00;;;;;10.60;100.00;100364.75;6258169;22;44677;-88
2022/11/28 04:05:19;;;;;;;;;14.00;11.67;;;;;10.59;100.00;100381.59;6232099;22;45338;-87
2022/11/28 04:07:55;;;;;;;;;11.67;11.33;;;;;10.61;100.00;100375.41;6231733;22;45287;-87
2022/11/28 04:10:40;;;;;;;;;18.67;12.33;;;;;10.55;100.00;100364.72;6230819;22;46759;-87
2022/11/28 04:13:06;;;;;;;;;15.67;12.00;;;;;10.67;100.00;100371.03;6257945;22;45307;-87
2022/11/28 04:15:53;;;;;;;;;14.67;14.67;;;;;10.63;100.00;100369.22;6232059;22;45772;-87
2022/11/28 04:18:26;;;;;;;;;12.00;12.00;;;;;10.71;100.00;100381.69;6257623;22;45356;-87
2022/11/28 04:20:58;;;;;;;;;13.33;12.67;;;;;10.72;100.00;100371.94;6232173;22;46775;-87
2022/11/28 04:23:33;;;;;;;;;18.67;18.33;;;;;10.72;100.00;100367.50;6228140;22;45299;-87
2022/11/28 04:26:06;;;;;;;;;18.33;15.67;;;;;10.69;100.00;100355.97;6229600;22;45239;-86
2022/11/28 04:28:33;;;;;;;;;15.67;14.00;;;;;10.69;100.00;100377.25;6257594;22;44754;-86
2022/11/28 04:31:02;;;;;;;;;14.00;12.33;;;;;10.68;100.00;100372.81;6229579;22;45315;-87
2022/11/28 04:33:32;;;;;;;;;16.67;16.00;;;;;10.64;100.00;100371.88;6230064;22;45385;-87
2022/11/28 04:36:00;;;;;;;;;15.00;15.00;;;;;10.63;100.00;100372.78;6230136;22;45256;-87
2022/11/28 04:38:27;;;;;;;;;20.00;16.33;;;;;10.69;100.00;100388.78;6224438;22;45627;-87
2022/11/28 04:41:00;;;;;;;;;15.33;15.33;;;;;10.72;100.00;100393.22;6200214;22;47276;-86
2022/11/28 04:43:32;;;;;;;;;16.00;13.67;;;;;10.71;100.00;100388.78;6199544;22;45294;-87
2022/11/28 04:46:34;;;;;;;;;12.00;11.00;;;;;10.79;100.00;100392.41;6200253;22;45240;-87
2022/11/28 04:49:00;;;;;;;;;15.33;14.33;;;;;10.83;100.00;100391.53;6167753;23;44894;-86
2022/11/28 04:52:05;;;;;;;;;12.67;10.33;;;;;10.81;100.00;100385.31;6165518;22;45968;-87
2022/11/28 04:54:50;;;;;;;;;13.00;12.67;;;;;10.93;100.00;100387.19;6140482;23;45521;-86
2022/11/28 04:57:25;;;;;;;;;10.00;10.00;;;;;10.96;100.00;100379.22;6140687;23;45270;-87
2022/11/28 04:59:52;;;;;;;;;17.67;15.67;;;;;10.94;100.00;100365.00;6141282;23;45595;-87
2022/11/28 05:02:20;;;;;;;;;13.00;11.67;;;;;10.79;100.00;100348.06;6165064;23;45686;-87
2022/11/28 05:04:46;;;;;;;;;16.67;14.67;;;;;10.85;100.00;100376.47;6139893;23;45321;-86
2022/11/28 05:07:12;;;;;;;;;16.67;12.00;;;;;10.80;100.00;100370.22;6139366;23;44804;-86
2022/11/28 05:09:37;;;;;;;;;10.67;10.00;;;;;10.84;100.00;100372.03;6140290;23;44929;-86
2022/11/28 05:12:03;;;;;;;;;13.33;12.33;;;;;10.81;100.00;100370.25;6138913;23;47281;-87
2022/11/28 05:14:29;;;;;;;;;17.00;16.00;;;;;10.87;100.00;100369.41;6136670;23;45305;-87
2022/11/28 05:16:54;;;;;;;;;15.33;12.67;;;;;10.90;100.00;100385.38;6136528;22;44850;-87
2022/11/28 05:19:20;;;;;;;;;15.33;11.33;;;;;10.87;100.00;100388.03;6138932;23;44806;-86
2022/11/28 05:21:45;;;;;;;;;12.33;11.67;;;;;10.88;100.00;100381.81;6165857;23;45338;-87
2022/11/28 05:24:11;;;;;;;;;11.67;11.00;;;;;10.88;100.00;100365.84;6189239;22;45446;-86
2022/11/28 05:26:37;;;;;;;;;16.33;14.33;;;;;10.94;100.00;100370.31;6205609;22;45697;-87
2022/11/28 05:29:03;;;;;;;;;11.33;10.67;;;;;10.90;100.00;100361.44;6200568;22;45387;-87
2022/11/28 05:31:29;;;;;;;;;11.67;11.67;;;;;10.96;100.00;100366.78;6226937;22;45415;-87
2022/11/28 05:33:55;;;;;;;;;12.33;11.00;;;;;10.94;100.00;100371.22;6225943;22;45275;-86
2022/11/28 05:36:21;;;;;;;;;14.00;9.67;;;;;10.89;100.00;100358.78;6198970;22;45181;-86
2022/11/28 05:38:46;;;;;;;;;11.00;9.00;;;;;10.93;100.00;100365.91;6236493;22;44784;-87
2022/11/28 05:41:21;;;;;;;;;13.33;10.33;;;;;10.93;100.00;100360.59;6230071;22;47795;-86
2022/11/28 05:43:46;;;;;;;;;15.00;15.00;;;;;10.88;100.00;100357.88;6231488;22;45298;-87
2022/11/28 05:46:12;;;;;;;;;12.33;11.00;;;;;10.88;100.00;100363.19;6260942;22;45648;-87
2022/11/28 05:48:38;;;;;;;;;16.33;16.00;;;;;10.82;100.00;100366.69;6231921;22;45338;-88
2022/11/28 05:51:04;;;;;;;;;12.33;11.33;;;;;10.82;100.00;100371.13;6258222;22;47448;-87
2022/11/28 05:53:29;;;;;;;;;11.00;10.33;;;;;10.75;100.00;100358.69;6258721;22;45301;-87
2022/11/28 05:55:55;;;;;;;;;9.67;9.33;;;;;10.78;100.00;100371.97;6233449;22;45397;-87
2022/11/28 05:58:21;;;;;;;;;12.67;10.00;;;;;10.76;100.00;100382.59;6232701;22;44883;-86
2022/11/28 06:00:46;;;;;;;;;15.00;9.00;;;;;10.76;100.00;100376.41;6233524;22;46628;-87
2022/11/28 06:03:12;;;;;;;;;11.67;10.33;;;;;10.73;100.00;100379.94;6234715;22;44633;-87
2022/11/28 06:05:40;;;;;;;;;14.67;12.67;;;;;10.70;100.00;100379.03;6232967;22;45127;-87
2022/11/28 06:08:06;;;;;;;;;10.67;9.67;;;;;10.63;100.00;100369.22;6234750;22;45258;-87
2022/11/28 06:10:31;;;;;;;;;15.00;13.00;;;;;10.63;100.00;100369.22;6232887;22;46964;-86
2022/11/28 06:12:57;;;;;;;;;14.00;10.00;;;;;10.71;100.00;100391.47;6234362;22;44817;-87
2022/11/28 06:15:23;;;;;;;;;15.33;11.00;;;;;10.72;100.00;100393.22;6232668;22;44824;-87
2022/11/28 06:17:51;;;;;;;;;14.00;10.33;;;;;10.65;100.00;100391.41;6233022;22;45386;-86
2022/11/28 06:20:17;;;;;;;;;15.33;13.00;;;;;10.71;100.00;100402.97;6258305;22;47009;-87
2022/11/28 06:22:45;;;;;;;;;11.67;11.33;;;;;10.72;100.00;100403.84;6232280;22;45212;-87
2022/11/28 06:25:11;;;;;;;;;11.00;10.00;;;;;10.70;100.00;100398.53;6259363;22;44673;-85
2022/11/28 06:27:37;;;;;;;;;15.00;11.00;;;;;10.71;100.00;100407.41;6261232;22;45250;-87
2022/11/28 06:30:05;;;;;;;;;14.33;12.00;;;;;10.69;100.00;100404.72;6262331;22;45397;-87
2022/11/28 06:32:31;;;;;;;;;11.00;11.00;;;;;10.64;100.00;100401.13;6261901;22;45198;-86
2022/11/28 06:34:57;;;;;;;;;11.33;11.33;;;;;10.64;100.00;100413.53;6234505;22;44690;-87
2022/11/28 06:37:22;;;;;;;;;13.67;12.67;;;;;10.60;100.00;100410.88;6234277;22;44919;-87
2022/11/28 06:39:54;;;;;;;;;11.67;11.67;;;;;10.55;100.00;100401.97;6213017;22;47671;-86
2022/11/28 06:42:20;;;;;;;;;15.00;12.00;;;;;10.53;100.00;100405.50;6202071;22;45530;-86
2022/11/28 06:44:45;;;;;;;;;12.67;12.67;;;;;10.51;100.00;100407.25;6202415;22;45436;-88
2022/11/28 06:47:11;;;;;;;;;13.00;10.67;;;;;10.53;100.00;100409.03;6231296;22;45172;-88
2022/11/28 06:49:38;;;;;;;;;12.67;12.67;;;;;10.58;100.00;100427.69;6202999;22;46616;-87
2022/11/28 06:52:03;;;;;;;;;13.33;11.33;;;;;10.52;100.00;100416.97;6233650;22;45240;-86
2022/11/28 06:54:29;;;;;;;;;13.67;11.67;;;;;10.56;100.00;100429.44;6204236;22;45341;-88
2022/11/28 06:56:55;;;;;;;;;13.67;11.33;;;;;10.53;100.00;100424.97;6230271;22;45300;-88
2022/11/28 06:59:20;;;;;;;;;11.00;11.00;;;;;10.46;100.00;100407.19;6206102;22;46503;-87
2022/11/28 07:01:46;;;;;;;;;16.00;15.00;;;;;10.54;100.00;100437.41;6179124;22;45170;-86
2022/11/28 07:04:11;;;;;;;;;12.00;11.00;;;;;10.50;100.00;100426.72;6201270;22;44751;-87
2022/11/28 07:06:40;;;;;;;;;9.00;8.33;;;;;10.57;100.00;100441.88;6201889;22;45865;-87
2022/11/28 07:12:20;;;;;;;;;21.33;16.00;;;;;10.57;100.00;100437.44;6194049;22;45428;-88
2022/11/28 07:14:47;;;;;;;;;12.67;11.33;;;;;10.47;100.00;100414.28;6202822;22;45379;-88
2022/11/28 07:17:16;;;;;;;;;9.67;9.67;;;;;10.39;100.00;100402.69;6229996;22;45860;-88
2022/11/28 07:19:43;;;;;;;;;10.00;10.00;;;;;10.48;100.00;100416.06;6179673;22;45601;-86
2022/11/28 07:22:10;;;;;;;;;9.33;9.33;;;;;10.52;100.00;100441.81;6206654;22;45467;-88
2022/11/28 07:24:36;;;;;;;;;44.00;34.75;;;;;10.45;100.00;100418.69;6207481;22;45328;-88
2022/11/28 07:27:02;;;;;;;;;12.67;11.00;;;;;10.29;100.00;100380.41;6235713;22;45280;-88
2022/11/28 07:29:35;;;;;;;;;10.67;10.00;;;;;10.36;100.00;100394.69;6233033;22;45163;-87
2022/11/28 07:32:04;;;;;;;;;14.00;12.33;;;;;10.33;100.00;100399.97;6206136;22;44756;-89
2022/11/28 07:34:33;;;;;;;;;11.67;11.67;;;;;10.47;100.00;100424.94;6206246;22;45320;-87
2022/11/28 07:36:59;;;;;;;;;12.00;11.33;;;;;10.46;100.00;100425.78;6203101;22;45222;-86
2022/11/28 07:39:28;;;;;;;;;11.00;10.00;;;;;10.28;100.00;100394.59;6242298;22;46253;-86
2022/11/28 07:41:56;;;;;;;;;11.00;9.67;;;;;10.54;100.00;100434.75;6261759;22;45386;-87
2022/11/28 07:44:28;;;;;;;;;11.00;9.00;;;;;10.25;100.00;100381.25;6235352;22;44685;-87
2022/11/28 07:46:57;;;;;;;;;16.33;10.00;;;;;10.42;100.00;100410.69;6261904;22;45157;-87
2022/11/28 07:49:22;;;;;;;;;9.67;9.67;;;;;10.54;100.00;100441.81;6233188;22;47672;-87
2022/11/28 07:51:48;;;;;;;;;10.67;10.00;;;;;10.56;100.00;100440.97;6232151;22;45321;-86
2022/11/28 07:54:13;;;;;;;;;14.67;10.33;;;;;10.44;100.00;100424.00;6233786;22;45338;-86
2022/11/28 07:56:39;;;;;;;;;14.00;11.33;;;;;10.58;100.00;100444.53;6235836;22;45402;-88
2022/11/28 07:59:05;;;;;;;;;9.33;9.33;;;;;10.61;100.00;100449.00;6236328;22;47578;-88
2022/11/28 08:01:37;;;;;;;;;13.00;9.00;;;;;10.61;100.00;100449.88;6235544;22;44784;-88
2022/11/28 08:04:06;;;;;;;;;15.33;11.33;;;;;10.67;100.00;100456.13;6235836;22;44737;-87
2022/11/28 08:06:36;;;;;;;;;14.00;13.33;;;;;10.45;100.00;100415.16;6240177;22;44820;-86
2022/11/28 08:09:03;;;;;;;;;13.33;11.00;;;;;10.71;100.00;100460.59;6238939;22;45345;-87
2022/11/28 08:11:32;;;;;;;;;10.67;10.67;;;;;10.75;100.00;100470.41;6236118;22;45237;-87
2022/11/28 08:13:58;;;;;;;;;8.00;8.00;;;;;10.63;100.00;100441.91;6235459;22;45322;-87
2022/11/28 08:16:28;;;;;;;;;12.67;11.67;;;;;10.82;100.00;100466.91;6235817;22;45256;-87
2022/11/28 08:19:01;;;;;;;;;10.33;10.00;;;;;10.85;100.00;100463.41;6239413;22;46808;-86
2022/11/28 08:21:33;;;;;;;;;15.00;14.67;;;;;10.88;100.00;100458.06;6265354;22;44744;-87
2022/11/28 08:24:01;;;;;;;;;11.33;8.00;;;;;10.93;100.00;100467.00;6265322;22;45228;-87
2022/11/28 08:26:36;;;;;;;;;13.33;11.67;;;;;10.92;100.00;100455.44;6239184;22;45213;-85
2022/11/28 08:29:02;;;;;;;;;9.67;9.33;;;;;10.97;100.00;100463.50;6238061;22;46953;-86
2022/11/28 08:31:37;;;;;;;;;15.00;12.33;;;;;10.98;100.00;100463.47;6265408;22;45770;-86
2022/11/28 08:34:16;;;;;;;;;;;;;;;;;;;;;
2022/11/28 08:36:47;;;;;;;;;12.00;9.33;;;;;11.04;100.00;100470.63;6262612;22;65437;-86
2022/11/28 08:39:16;;;;;;;;;9.67;9.67;;;;;11.03;100.00;100466.19;6268697;22;45082;-86
2022/11/28 08:41:41;;;;;;;;;10.00;10.00;;;;;10.99;100.00;100462.63;6244695;22;46015;-86
2022/11/28 08:44:07;;;;;;;;;10.33;10.00;;;;;11.05;100.00;100466.19;6239980;22;44879;-85
2022/11/28 08:47:20;;;;;;;;;10.00;10.00;;;;;10.86;100.00;100439.44;6239774;22;44800;-85
2022/11/28 08:49:45;;;;;;;;;8.00;8.00;;;;;10.88;100.00;100443.00;6115782;23;46723;-85
2022/11/28 08:52:11;;;;;;;;;9.00;9.00;;;;;10.91;100.00;100458.13;6140747;23;44820;-85
2022/11/28 08:54:40;;;;;;;;;15.00;12.00;;;;;10.97;100.00;100469.69;6138378;23;45378;-85
2022/11/28 08:57:08;;;;;;;;;12.67;12.67;;;;;10.95;100.00;100466.13;6112669;23;45399;-85
2022/11/28 08:59:39;;;;;;;;;11.67;11.67;;;;;10.98;100.00;100470.56;6139511;23;47721;-86
2022/11/28 09:02:22;;;;;;;;;10.33;9.00;;;;;10.99;100.00;100465.28;6114037;23;45402;-86
2022/11/28 09:05:36;;;;;;;;;;;;;;;;;;;;;
2022/11/28 09:08:18;;;;;;;;;15.33;9.67;;;;;11.15;100.00;100468.94;6138378;23;65133;-86
2022/11/28 09:12:01;;;;;;;;;;;;;;;;;;;;;
2022/11/28 09:15:16;;;;;;;;;;;;;;;;;;;;;
2022/11/28 09:18:29;;;;;;;;;8.67;8.67;;;;;11.34;100.00;100464.63;5995870;23;45384;-86
2022/11/28 09:21:30;;;;;;;;;9.67;7.33;;;;;11.12;100.00;100420.13;5991314;23;45206;-85
2022/11/28 09:24:15;;;;;;;;;10.00;10.00;;;;;11.34;100.00;100459.31;5995708;23;47088;-87
2022/11/28 09:29:41;;;;;;;;;8.00;8.00;;;;;11.46;100.00;100463.81;6111650;23;44866;-86
2022/11/28 09:32:40;;;;;;;;;10.00;8.00;;;;;11.57;100.00;100480.75;6111085;23;44947;-87
2022/11/28 09:35:57;;;;;;;;;8.67;6.33;;;;;11.65;100.00;100474.56;6059625;23;47315;-86
2022/11/28 09:41:48;;;;;;;;;9.67;8.00;;;;;11.72;100.00;100476.41;6096305;23;45381;-86
2022/11/28 09:44:40;;;;;;;;;10.00;6.67;;;;;11.60;100.00;100461.25;6085800;23;45301;-85
2022/11/28 09:47:47;;;;;;;;;;;;;;;;;;;;;
2022/11/28 09:50:55;;;;;;;;;7.67;5.67;;;;;11.37;100.00;100431.78;6058868;23;72144;-86
2022/11/28 09:53:28;;;;;;;;;5.00;5.00;;;;;11.70;100.00;100473.72;6158381;22;45221;-86
2022/11/28 09:56:17;;;;;;;;;9.00;7.67;;;;;11.72;100.00;100471.97;6229570;22;44786;-86
2022/11/28 09:59:24;;;;;;;;;10.00;5.67;;;;;11.50;100.00;100432.78;6202495;22;46265;-87
2022/11/28 10:02:12;;;;;;;;;6.67;5.00;;;;;11.80;100.00;100480.88;6229212;22;45373;-86
2022/11/28 10:05:04;;;;;;;;;8.00;8.00;;;;;11.56;100.00;100432.81;6206977;22;44675;-86
2022/11/28 10:07:42;;;;;;;;;7.00;6.00;;;;;11.86;100.00;100476.47;6233235;22;45433;-87
2022/11/28 10:10:30;;;;;;;;;10.67;7.33;;;;;11.87;100.00;100465.78;6206648;22;48757;-86
2022/11/28 10:13:08;;;;;;;;;8.00;8.00;;;;;11.89;100.00;100469.38;6207319;22;44807;-86
2022/11/28 10:16:20;;;;;;;;;7.00;7.00;;;;;11.93;100.00;100468.50;6208679;22;45380;-86
2022/11/28 10:18:55;;;;;;;;;9.33;7.67;;;;;11.98;100.00;100468.56;6173522;23;44890;-86
2022/11/28 10:21:48;;;;;;;;;9.00;9.00;;;;;12.01;100.00;100474.75;6173081;22;47140;-86
2022/11/28 10:25:20;;;;;;;;;8.67;6.67;;;;;12.06;100.00;100482.81;6173140;23;44725;-84
2022/11/28 10:27:54;;;;;;;;;4.33;4.33;;;;;12.04;100.00;100473.91;6196915;23;45889;-85
2022/11/28 10:30:23;;;;;;;;;8.00;5.00;;;;;12.10;100.00;100487.25;6169009;23;44830;-85
2022/11/28 10:33:19;;;;;;;;;5.33;5.00;;;;;12.08;100.00;100480.13;6173368;23;45478;-86
2022/11/28 10:35:52;;;;;;;;;5.33;5.00;;;;;12.06;100.00;100480.13;6200082;23;45232;-86
2022/11/28 10:38:26;;;;;;;;;6.67;6.67;;;;;12.04;100.00;100473.91;6171792;23;44816;-86
2022/11/28 10:41:17;;;;;;;;;5.33;5.33;;;;;12.02;100.00;100462.34;6147541;23;45452;-86
2022/11/28 10:44:19;;;;;;;;;9.33;5.33;;;;;12.07;100.00;100468.56;6169058;23;46868;-85
2022/11/28 10:47:09;;;;;;;;;2.00;2.00;;;;;12.01;100.00;100455.22;6146201;23;45439;-87
2022/11/28 10:53:27;;;;;;;;;7.67;7.67;;;;;12.11;100.00;100464.16;6172443;23;44883;-87
2022/11/28 10:56:30;;;;;;;;;5.00;4.00;;;;;12.14;100.00;100467.72;6230026;22;45200;-86
2022/11/28 10:59:30;;;;;;;;;3.67;3.67;;;;;12.17;100.00;100475.72;6241247;22;44808;-85
2022/11/28 11:02:07;;;;;;;;;88.50;69.50;;;;;11.98;100.00;100440.13;6237388;22;45234;-86
2022/11/28 11:04:41;;;;;;;;;20.33;14.67;;;;;12.22;100.00;100478.41;6265892;22;44796;-87
2022/11/28 11:07:28;;;;;;;;;4.67;4.67;;;;;12.12;100.00;100456.16;6238316;22;47070;-87
2022/11/28 11:10:11;;;;;;;;;7.00;5.00;;;;;11.95;100.00;100433.88;6264050;22;45258;-88
2022/11/28 11:12:38;;;;;;;;;29.00;26.00;;;;;12.23;100.00;100477.53;6265467;22;45262;-87
2022/11/28 11:15:46;;;;;;;;;4.00;4.00;;;;;12.19;100.00;100473.94;6238770;22;44857;-86
2022/11/28 11:18:29;;;;;;;;;4.67;3.67;;;;;12.38;100.00;100490.00;6237451;22;45508;-86
2022/11/28 11:21:52;;;;;;;;;10.00;5.67;;;;;12.46;100.00;100500.69;6234066;22;45237;-87
2022/11/28 11:24:18;;;;;;;;;13.33;10.00;;;;;12.35;100.00;100471.34;6116409;23;44805;-86
2022/11/28 11:26:47;;;;;;;;;4.67;4.67;;;;;12.48;100.00;100494.50;6115493;23;44966;-87
2022/11/28 11:29:50;;;;;;;;;3.33;3.00;;;;;12.50;100.00;100484.72;6116510;23;46796;-86
2022/11/28 11:32:25;;;;;;;;;4.00;2.00;;;;;12.59;100.00;100479.38;6135029;23;45124;-85
2022/11/28 11:34:55;;;;;;;;;4.00;4.00;;;;;12.68;100.00;100474.94;6117973;23;44887;-85
2022/11/28 11:38:14;;;;;;;;;9.67;7.33;;;;;12.68;100.00;100434.91;6116501;23;45466;-84
2022/11/28 11:40:39;;;;;;;;;7.33;5.67;;;;;12.92;100.00;100456.25;6083958;23;46934;-87
2022/11/28 11:43:31;;;;;;;;;6.00;6.00;;;;;13.11;100.00;100461.59;6113103;23;45325;-87
2022/11/28 11:46:11;;;;;;;;;4.33;4.33;;;;;13.19;100.00;100459.84;6113939;23;45283;-86
2022/11/28 11:49:26;;;;;;;;;6.00;6.00;;;;;13.26;100.00;100450.91;6089659;23;45293;-87
2022/11/28 11:52:22;;;;;;;;;6.67;4.67;;;;;13.26;100.00;100418.84;6085822;23;45082;-86
2022/11/28 11:59:03;;;;;;;;;5.50;5.50;;;;;13.57;100.00;100441.09;6009657;23;44775;-87
2022/11/28 12:01:38;;;;;;;;;9.25;6.25;;;;;13.55;100.00;100433.94;6050258;23;45000;-86
2022/11/28 12:08:31;;;;;;;;;;;;;;;;;;;;;
2022/11/28 12:15:41;;;;;;;;;7.00;4.33;;;;;13.25;100.00;100432.22;5940504;24;45351;-86
2022/11/28 12:19:06;;;;;;;;;;;;;;;;;;;;;
2022/11/28 12:22:11;;;;;;;;;5.00;4.00;;;;;13.09;100.00;100383.28;5900944;24;73425;-84
2022/11/28 12:25:16;;;;;;;;;6.00;6.00;;;;;13.37;100.00;100414.44;5942579;24;44843;-85
2022/11/28 12:28:14;;;;;;;;;7.00;7.00;;;;;13.27;100.00;100420.66;5918964;24;45330;-84
2022/11/28 12:31:06;;;;;;;;;3.67;3.67;;;;;12.95;100.00;100372.66;5940789;24;46217;-84
2022/11/28 12:34:06;;;;;;;;;5.00;3.33;;;;;13.15;100.00;100410.88;5953406;23;44970;-85